Station Historical Data
Daily Summary for May 30, 2017 Units:  Metric    English   Both
« Previous Day
Next Day »
Daily Weekly Monthly Yearly Custom
  High: Low: Average:
Temperature: 23.7 °C 14.3 °C 18.7 °C
Dew Point: 14.6 °C 8.2 °C 11.6 °C
Humidity: 88% 41% 65%
Wind Speed: 22.5km/h 0km/h 6.6km/h
Wind Gust: 30.6km/h - -
Wind- - SW
Pressure: 1014.1 hPa 1011.4 hPa -
Precipitation: 0 mm    
Historical Graphs
 
 
Tabular Data for May 30, 2017
Time Temperature Dew Point Pressure Wind Wind Speed Wind Gust Humidity Rainfall Rate (Hourly)
00:04 18.2 °C 11.7 °C 1011.7 hPa SW 1.6 km/h 9.7 km/h 66% 0 mm
00:09 18.1 °C 11.7 °C 1011.7 hPa WSW 3.2 km/h 9.7 km/h 66% 0 mm
00:14 18.1 °C 11.9 °C 1011.7 hPa WSW 3.2 km/h 8 km/h 67% 0 mm
00:19 18 °C 11.8 °C 1011.7 hPa West 3.2 km/h 6.4 km/h 67% 0 mm
00:24 17.8 °C 12 °C 1011.7 hPa WSW 3.2 km/h 6.4 km/h 69% 0 mm
00:29 17.6 °C 12 °C 1011.7 hPa WSW 3.2 km/h 6.4 km/h 70% 0 mm
00:34 17.2 °C 12.1 °C 1011.4 hPa SW 3.2 km/h 4.8 km/h 72% 0 mm
00:39 16.9 °C 12.1 °C 1011.4 hPa SW 1.6 km/h 3.2 km/h 73% 0 mm
00:44 16.6 °C 11.9 °C 1011.4 hPa SW 1.6 km/h 3.2 km/h 74% 0 mm
00:49 16.3 °C 11.8 °C 1011.4 hPa Calm   1.6 km/h 75% 0 mm
00:54 16.1 °C 11.8 °C 1011.4 hPa Calm   1.6 km/h 76% 0 mm
00:59 15.9 °C 11.7 °C 1011.4 hPa Calm     76% 0 mm
01:04 15.8 °C 11.8 °C 1011.4 hPa SW 1.6 km/h 4.8 km/h 77% 0 mm
01:09 16.1 °C 11.8 °C 1011.4 hPa SW 3.2 km/h 11.3 km/h 76% 0 mm
01:14 16.4 °C 12 °C 1011.4 hPa SSW 3.2 km/h 8 km/h 75% 0 mm
01:19 16.7 °C 12 °C 1011.4 hPa SSW 1.6 km/h 9.7 km/h 74% 0 mm
01:24 16.6 °C 11.9 °C 1011.4 hPa SSW 3.2 km/h 9.7 km/h 74% 0 mm
01:29 16.5 °C 12.1 °C 1011.4 hPa SSW 1.6 km/h 6.4 km/h 75% 0 mm
01:34 16.3 °C 11.9 °C 1011.4 hPa Calm   4.8 km/h 75% 0 mm
01:39 16.2 °C 11.9 °C 1011.4 hPa Calm   3.2 km/h 76% 0 mm
01:44 16.1 °C 11.8 °C 1011.7 hPa Calm   3.2 km/h 76% 0 mm
01:49 16.2 °C 12 °C 1012.1 hPa WSW 1.6 km/h 8 km/h 76% 0 mm
01:54 16.4 °C 12.2 °C 1012.1 hPa West 1.6 km/h 4.8 km/h 76% 0 mm
01:59 16.6 °C 12.1 °C 1012.1 hPa Calm   4.8 km/h 75% 0 mm
02:04 16.7 °C 12.2 °C 1012.1 hPa Calm   3.2 km/h 75% 0 mm
02:09 16.7 °C 12.4 °C 1012.1 hPa West 1.6 km/h 3.2 km/h 76% 0 mm
02:14 16.7 °C 12.7 °C 1012.4 hPa WSW 3.2 km/h 6.4 km/h 77% 0 mm
02:19 16.8 °C 12.7 °C 1012.8 hPa West 3.2 km/h 9.7 km/h 77% 0 mm
02:24 16.9 °C 12.8 °C 1012.8 hPa West 8 km/h 27.4 km/h 77% 0 mm
02:29 16.9 °C 12.8 °C 1012.4 hPa West 11.3 km/h 27.4 km/h 77% 0 mm
02:34 16.6 °C 12.8 °C 1013.1 hPa West 8 km/h 20.9 km/h 78% 0.25 mm
02:39 16.3 °C 12.4 °C 1013.1 hPa WSW 9.7 km/h 17.7 km/h 78% 0.51 mm
02:44 15.9 °C 12.4 °C 1013.1 hPa SSW 3.2 km/h 11.3 km/h 80% 1.02 mm
02:49 15.6 °C 12.5 °C 1013.1 hPa SW 4.8 km/h 11.3 km/h 82% 1.27 mm
02:54 15.3 °C 12.6 °C 1012.8 hPa SSW 3.2 km/h 11.3 km/h 84% 1.52 mm
02:59 15.1 °C 12.6 °C 1012.4 hPa South 3.2 km/h 11.3 km/h 85% 1.78 mm
03:04 15.1 °C 12.6 °C 1012.1 hPa Calm   4.8 km/h 85% 1.78 mm
03:09 15 °C 12.7 °C 1011.7 hPa Calm   3.2 km/h 86% 1.78 mm
03:14 14.9 °C 12.6 °C 1011.4 hPa Calm     86% 1.78 mm
03:19 14.8 °C 12.4 °C 1011.4 hPa South 6.4 km/h 6.4 km/h 86% 1.78 mm
03:24 14.7 °C 12.6 °C 1011.7 hPa South 1.6 km/h 6.4 km/h 87% 1.78 mm
03:29 14.7 °C 12.6 °C 1011.7 hPa SSE 4.8 km/h 9.7 km/h 87% 1.78 mm
03:34 14.7 °C 12.6 °C 1011.7 hPa SSE 4.8 km/h 9.7 km/h 87% 1.52 mm
03:39 14.8 °C 12.8 °C 1012.1 hPa SSW 1.6 km/h 6.4 km/h 88% 1.27 mm
03:44 14.8 °C 12.8 °C 1012.4 hPa SSW 3.2 km/h 6.4 km/h 88% 0.76 mm
03:49 14.7 °C 12.7 °C 1012.4 hPa South 3.2 km/h 9.7 km/h 88% 0.51 mm
03:54 14.7 °C 12.7 °C 1012.4 hPa SSW 1.6 km/h 6.4 km/h 88% 0.25 mm
03:59 14.7 °C 12.7 °C 1012.4 hPa South 3.2 km/h 8 km/h 88% 0 mm
04:04 14.7 °C 12.7 °C 1012.4 hPa South 3.2 km/h 11.3 km/h 88% 0 mm
04:09 14.7 °C 12.7 °C 1012.4 hPa South 4.8 km/h 11.3 km/h 88% 0 mm
04:14 14.7 °C 12.7 °C 1012.4 hPa South 4.8 km/h 6.4 km/h 88% 0 mm
04:19 14.7 °C 12.7 °C 1012.1 hPa SSE 3.2 km/h 6.4 km/h 88% 0.25 mm
04:24 14.7 °C 12.7 °C 1012.1 hPa SSE 3.2 km/h 6.4 km/h 88% 0.25 mm
04:29 14.6 °C 12.7 °C 1012.1 hPa SSE 1.6 km/h 6.4 km/h 88% 0.25 mm
04:34 14.6 °C 12.6 °C 1012.1 hPa Calm     88% 0.25 mm
04:39 14.5 °C 12.3 °C 1012.1 hPa Calm     87% 0.25 mm
04:44 14.4 °C 12.3 °C 1012.1 hPa Calm   4.8 km/h 87% 0.25 mm
04:49 14.4 °C 12.5 °C 1012.1 hPa SSW 1.6 km/h 6.4 km/h 88% 0.25 mm
04:54 14.4 °C 12.5 °C 1012.4 hPa South 3.2 km/h 6.4 km/h 88% 0.25 mm
04:59 14.5 °C 12.6 °C 1012.4 hPa SSW 3.2 km/h 6.4 km/h 88% 0.25 mm
05:04 14.5 °C 12.3 °C 1012.4 hPa South 3.2 km/h 6.4 km/h 87% 0.25 mm
05:09 14.4 °C 12.3 °C 1012.4 hPa South 4.8 km/h 8 km/h 87% 0.25 mm
05:14 14.5 °C 12.3 °C 1012.1 hPa South 3.2 km/h 8 km/h 87% 0.25 mm
05:19 14.5 °C 12.3 °C 1012.4 hPa SSW 3.2 km/h 8 km/h 87% 0 mm
05:24 14.5 °C 12.3 °C 1012.4 hPa SSW 3.2 km/h 8 km/h 87% 0 mm
05:29 14.4 °C 12.3 °C 1012.1 hPa SSW 3.2 km/h 8 km/h 87% 0 mm
05:39 14.3 °C 12.2 °C 1012.4 hPa Calm     87% 0 mm
05:44 14.3 °C 12.2 °C 1012.4 hPa SSE 1.6 km/h 6.4 km/h 87% 0 mm
05:49 14.3 °C 12.2 °C 1012.4 hPa South 3.2 km/h 6.4 km/h 87% 0 mm
05:54 14.3 °C 12.2 °C 1012.8 hPa SSW 1.6 km/h 6.4 km/h 87% 0 mm
05:59 14.3 °C 12.2 °C 1012.8 hPa SSW 3.2 km/h 8 km/h 87% 0 mm
06:04 14.3 °C 12.2 °C 1012.8 hPa SSW 3.2 km/h 9.7 km/h 87% 0 mm
06:09 14.5 °C 12.3 °C 1012.8 hPa SSW 1.6 km/h 9.7 km/h 87% 0 mm
06:14 14.6 °C 12.4 °C 1012.8 hPa SSW 1.6 km/h 4.8 km/h 87% 0 mm
06:19 14.7 °C 12.3 °C 1012.8 hPa SSW 1.6 km/h 4.8 km/h 86% 0 mm
06:24 14.7 °C 12.4 °C 1012.8 hPa Calm   4.8 km/h 86% 0 mm
06:29 14.8 °C 12.5 °C 1012.8 hPa Calm     86% 0 mm
06:34 14.9 °C 12.6 °C 1012.8 hPa Calm     86% 0 mm
06:39 15 °C 12.8 °C 1012.8 hPa Calm     87% 0 mm
06:44 15.1 °C 12.9 °C 1013.1 hPa Calm     87% 0 mm
06:49 15.2 °C 13 °C 1013.1 hPa Calm     87% 0 mm
06:54 15.2 °C 13.1 °C 1013.1 hPa Calm     87% 0 mm
06:59 15.4 °C 13.2 °C 1013.1 hPa Calm     87% 0 mm
07:04 15.6 °C 13.4 °C 1013.1 hPa Calm     87% 0 mm
07:09 15.8 °C 13.5 °C 1012.8 hPa Calm   3.2 km/h 86% 0 mm
07:14 16.1 °C 13.3 °C 1013.1 hPa Calm   3.2 km/h 84% 0 mm
07:19 16.3 °C 13.2 °C 1013.1 hPa SSW 1.6 km/h 8 km/h 82% 0 mm
07:24 16.3 °C 13.3 °C 1013.1 hPa South 1.6 km/h 4.8 km/h 82% 0 mm
07:29 16.3 °C 13 °C 1013.1 hPa South 1.6 km/h 6.4 km/h 81% 0 mm
07:34 16.2 °C 12.9 °C 1013.1 hPa South 3.2 km/h 8 km/h 81% 0 mm
07:39 16.2 °C 12.9 °C 1013.1 hPa SSW 1.6 km/h 8 km/h 81% 0 mm
07:44 16.3 °C 13.2 °C 1013.1 hPa South 1.6 km/h 4.8 km/h 82% 0 mm
07:49 16.3 °C 13.2 °C 1013.4 hPa South 3.2 km/h 6.4 km/h 82% 0 mm
07:54 16.3 °C 13.2 °C 1013.4 hPa SSW 3.2 km/h 6.4 km/h 82% 0 mm
07:59 16.3 °C 13.3 °C 1013.4 hPa SW 4.8 km/h 6.4 km/h 82% 0 mm
08:04 16.4 °C 13.3 °C 1013.8 hPa SSW 1.6 km/h 11.3 km/h 82% 0 mm
08:09 16.4 °C 13.2 °C 1013.8 hPa SW 3.2 km/h 8 km/h 81% 0 mm
08:14 16.4 °C 13.2 °C 1013.8 hPa SW 3.2 km/h 8 km/h 81% 0 mm
08:19 16.4 °C 13.3 °C 1014.1 hPa WSW 6.4 km/h 9.7 km/h 82% 0 mm
08:24 16.6 °C 13.4 °C 1014.1 hPa SSW 3.2 km/h 12.9 km/h 82% 0 mm
08:29 16.9 °C 14 °C 1014.1 hPa SW 6.4 km/h 8 km/h 83% 0 mm
08:34 17.1 °C 13.6 °C 1013.8 hPa SW 4.8 km/h 12.9 km/h 80% 0 mm
08:39 17.7 °C 14.2 °C 1013.8 hPa SW 4.8 km/h 12.9 km/h 80% 0 mm
08:44 18.2 °C 14.5 °C 1013.8 hPa SW 4.8 km/h 11.3 km/h 79% 0 mm
08:49 18.7 °C 14.6 °C 1014.1 hPa SW 4.8 km/h 12.9 km/h 77% 0 mm
08:54 18.5 °C 14.2 °C 1014.1 hPa SW 8 km/h 16.1 km/h 76% 0 mm
08:59 18.5 °C 14 °C 1013.8 hPa SW 12.9 km/h 14.5 km/h 75% 0 mm
09:04 18.2 °C 13.7 °C 1013.4 hPa WSW 8 km/h 14.5 km/h 75% 0 mm
09:09 18 °C 13.7 °C 1013.4 hPa WSW 8 km/h 16.1 km/h 76% 0 mm
09:14 18.3 °C 14.4 °C 1013.8 hPa SW 8 km/h 16.1 km/h 78% 0 mm
09:19 18.6 °C 14.1 °C 1013.4 hPa SW 9.7 km/h 16.1 km/h 75% 0 mm
09:24 18.8 °C 14.3 °C 1013.8 hPa SW 4.8 km/h 11.3 km/h 75% 0 mm
09:29 18.7 °C 13.5 °C 1013.8 hPa WSW 6.4 km/h 16.1 km/h 72% 0 mm
09:34 18.7 °C 13.9 °C 1013.8 hPa SW 6.4 km/h 16.1 km/h 74% 0 mm
09:39 18.5 °C 13.8 °C 1013.4 hPa SW 4.8 km/h 11.3 km/h 74% 0 mm
09:44 18.8 °C 14.3 °C 1013.8 hPa SW 6.4 km/h 11.3 km/h 75% 0 mm
09:49 18.8 °C 13.6 °C 1013.4 hPa SW 4.8 km/h 14.5 km/h 72% 0 mm
09:54 18.7 °C 13.3 °C 1013.4 hPa SW 4.8 km/h 12.9 km/h 71% 0 mm
09:59 19.1 °C 14.5 °C 1013.4 hPa SW 6.4 km/h 11.3 km/h 75% 0 mm
10:04 19.3 °C 13.4 °C 1013.4 hPa SSW 4.8 km/h 11.3 km/h 69% 0 mm
10:09 19.4 °C 13.6 °C 1013.4 hPa SW 6.4 km/h 14.5 km/h 69% 0 mm
10:14 19.8 °C 13.5 °C 1013.4 hPa SSW 6.4 km/h 14.5 km/h 67% 0 mm
10:19 20.1 °C 13.7 °C 1013.4 hPa SW 6.4 km/h 12.9 km/h 67% 0 mm
10:24 20.3 °C 13.6 °C 1013.4 hPa SW 6.4 km/h 14.5 km/h 65% 0 mm
10:29 20.4 °C 13.8 °C 1013.4 hPa SW 6.4 km/h 17.7 km/h 66% 0 mm
10:34 20.3 °C 13 °C 1013.1 hPa SW 8 km/h 17.7 km/h 63% 0 mm
10:39 20.6 °C 13 °C 1013.1 hPa SW 12.9 km/h 17.7 km/h 62% 0 mm
10:44 20.2 °C 13.1 °C 1013.4 hPa SW 4.8 km/h 14.5 km/h 64% 0 mm
10:49 20.4 °C 12.6 °C 1013.4 hPa West 9.7 km/h 17.7 km/h 61% 0 mm
10:54 20.4 °C 13.3 °C 1013.4 hPa WNW 8 km/h 14.5 km/h 64% 0 mm
10:59 20.2 °C 13.7 °C 1013.4 hPa WSW 8 km/h 16.1 km/h 66% 0 mm
11:04 20.3 °C 13.1 °C 1013.4 hPa WSW 8 km/h 16.1 km/h 63% 0 mm
11:09 20.4 °C 12.6 °C 1013.4 hPa WSW 8 km/h 19.3 km/h 61% 0 mm
11:14 20.3 °C 12.6 °C 1013.4 hPa WSW 9.7 km/h 19.3 km/h 61% 0 mm
11:19 20.3 °C 13.3 °C 1013.8 hPa SW 9.7 km/h 17.7 km/h 64% 0 mm
11:24 20.2 °C 12.7 °C 1013.8 hPa West 11.3 km/h 16.1 km/h 62% 0 mm
11:29 20.4 °C 12.4 °C 1013.8 hPa WSW 4.8 km/h 16.1 km/h 60% 0 mm
11:34 20.3 °C 12.8 °C 1013.8 hPa WSW 8 km/h 17.7 km/h 62% 0 mm
11:39 20.1 °C 12.1 °C 1013.8 hPa SW 8 km/h 17.7 km/h 60% 0 mm
11:44 20 °C 12.2 °C 1013.8 hPa West 9.7 km/h 16.1 km/h 61% 0 mm
11:49 19.9 °C 12.4 °C 1013.8 hPa WSW 1.6 km/h 20.9 km/h 62% 0 mm
11:54 19.9 °C 12.4 °C 1013.8 hPa WSW 3.2 km/h 14.5 km/h 62% 0 mm
11:59 20.4 °C 12.9 °C 1013.8 hPa West 8 km/h 12.9 km/h 62% 0 mm
12:04 20.3 °C 12.6 °C 1013.4 hPa West 8 km/h 16.1 km/h 61% 0 mm
12:09 20.2 °C 12.4 °C 1013.8 hPa WSW 8 km/h 16.1 km/h 61% 0 mm
12:14 20.2 °C 11.9 °C 1013.8 hPa SW 8 km/h 16.1 km/h 59% 0 mm
12:19 20.2 °C 12.4 °C 1013.4 hPa WSW 9.7 km/h 14.5 km/h 61% 0 mm
12:24 20.3 °C 12.5 °C 1013.4 hPa NW 8 km/h 14.5 km/h 61% 0 mm
12:29 20.6 °C 13.1 °C 1013.4 hPa West 3.2 km/h 12.9 km/h 62% 0 mm
12:34 20.4 °C 12.6 °C 1013.4 hPa WSW 6.4 km/h 16.1 km/h 61% 0 mm
12:39 20.7 °C 13.7 °C 1013.4 hPa WSW 8 km/h 16.1 km/h 64% 0 mm
12:44 21.4 °C 12.8 °C 1013.4 hPa WSW 8 km/h 17.7 km/h 58% 0 mm
12:49 21.2 °C 12.6 °C 1013.4 hPa SW 8 km/h 17.7 km/h 58% 0 mm
12:54 21.6 °C 12.9 °C 1013.4 hPa SW 6.4 km/h 14.5 km/h 58% 0 mm
12:59 21.8 °C 12.3 °C 1013.1 hPa WSW 6.4 km/h 16.1 km/h 55% 0 mm
13:04 21.9 °C 11.6 °C 1013.1 hPa SW 8 km/h 12.9 km/h 52% 0 mm
13:09 22.2 °C 12.7 °C 1013.1 hPa SSW 8 km/h 12.9 km/h 55% 0 mm
13:14 22.3 °C 11.7 °C 1013.1 hPa SW 8 km/h 17.7 km/h 51% 0 mm
13:19 22.5 °C 13 °C 1012.8 hPa South 6.4 km/h 16.1 km/h 55% 0 mm
13:24 22.7 °C 11.2 °C 1012.8 hPa WNW 3.2 km/h 12.9 km/h 48% 0 mm
13:29 23 °C 12.3 °C 1012.4 hPa West 8 km/h 11.3 km/h 51% 0 mm
13:34 22.9 °C 11 °C 1012.4 hPa WSW 6.4 km/h 17.7 km/h 47% 0 mm
13:39 23.2 °C 11.2 °C 1012.4 hPa West 9.7 km/h 22.5 km/h 47% 0 mm
13:44 23.1 °C 10.2 °C 1012.4 hPa WSW 9.7 km/h 22.5 km/h 44% 0 mm
13:49 23 °C 10.8 °C 1012.4 hPa WSW 9.7 km/h 22.5 km/h 46% 0 mm
13:54 23.1 °C 9.8 °C 1012.4 hPa WSW 9.7 km/h 22.5 km/h 43% 0 mm
13:59 23.2 °C 10.9 °C 1012.4 hPa WSW 9.7 km/h 22.5 km/h 46% 0 mm
14:04 23.3 °C 11.3 °C 1012.4 hPa WSW 9.7 km/h 22.5 km/h 47% 0 mm
14:09 23.2 °C 11.8 °C 1012.1 hPa WSW 11.3 km/h 22.5 km/h 49% 0 mm
14:14 23.3 °C 10.7 °C 1012.1 hPa NW 6.4 km/h 19.3 km/h 45% 0 mm
14:19 23.3 °C 11.3 °C 1011.7 hPa West 9.7 km/h 17.7 km/h 47% 0 mm
14:24 23.4 °C 10.5 °C 1011.7 hPa SW 16.1 km/h 25.7 km/h 44% 0 mm
14:29 23.3 °C 10.4 °C 1011.7 hPa SSW 6.4 km/h 19.3 km/h 44% 0 mm
14:34 23.3 °C 9.3 °C 1011.7 hPa WSW 11.3 km/h 22.5 km/h 41% 0 mm
14:39 23.2 °C 10.3 °C 1011.7 hPa WSW 11.3 km/h 22.5 km/h 44% 0 mm
14:44 23.6 °C 11.3 °C 1011.7 hPa WSW 9.7 km/h 20.9 km/h 46% 0 mm
14:49 23.4 °C 9.7 °C 1011.7 hPa WSW 17.7 km/h 19.3 km/h 42% 0 mm
14:54 23.4 °C 12.1 °C 1011.7 hPa SW 11.3 km/h 17.7 km/h 49% 0 mm
14:59 23.7 °C 10.3 °C 1011.7 hPa SW 9.7 km/h 19.3 km/h 43% 0 mm
15:04 23.6 °C 10.9 °C 1011.7 hPa West 9.7 km/h 24.1 km/h 45% 0 mm
15:09 23.4 °C 10.8 °C 1011.7 hPa WSW 11.3 km/h 24.1 km/h 45% 0 mm
15:14 23.5 °C 10.9 °C 1011.7 hPa WSW 11.3 km/h 22.5 km/h 45% 0 mm
15:19 23.3 °C 10.1 °C 1011.7 hPa SW 12.9 km/h 25.7 km/h 43% 0 mm
15:24 22.7 °C 9.8 °C 1011.7 hPa SW 14.5 km/h 25.7 km/h 44% 0 mm
15:29 22.3 °C 10.1 °C 1011.7 hPa SW 11.3 km/h 19.3 km/h 46% 0 mm
15:34 22.1 °C 10.6 °C 1011.7 hPa WSW 11.3 km/h 20.9 km/h 48% 0 mm
15:39 22.4 °C 9.9 °C 1011.7 hPa WSW 11.3 km/h 29 km/h 45% 0 mm
15:44 22.5 °C 9.9 °C 1011.7 hPa WSW 11.3 km/h 29 km/h 45% 0 mm
15:49 22.6 °C 11.6 °C 1011.7 hPa WSW 11.3 km/h 22.5 km/h 50% 0 mm
15:54 23.1 °C 11.2 °C 1011.7 hPa WSW 9.7 km/h 24.1 km/h 47% 0 mm
15:59 22.9 °C 10.7 °C 1011.7 hPa WSW 11.3 km/h 24.1 km/h 46% 0 mm
16:04 22.6 °C 10.1 °C 1011.7 hPa WSW 11.3 km/h 24.1 km/h 45% 0 mm
16:09 22.6 °C 10.7 °C 1011.7 hPa WSW 12.9 km/h 22.5 km/h 47% 0 mm
16:14 22.9 °C 11.3 °C 1012.1 hPa West 12.9 km/h 24.1 km/h 48% 0 mm
16:19 22.8 °C 10.2 °C 1012.1 hPa SW 22.5 km/h 27.4 km/h 45% 0 mm
16:24 22.7 °C 11.2 °C 1012.1 hPa WSW 11.3 km/h 22.5 km/h 48% 0 mm
16:29 22.4 °C 10.2 °C 1012.1 hPa SW 11.3 km/h 25.7 km/h 46% 0 mm
16:34 22.4 °C 10.9 °C 1012.1 hPa WSW 8 km/h 30.6 km/h 48% 0 mm
16:39 22.6 °C 10.4 °C 1012.1 hPa WNW 8 km/h 24.1 km/h 46% 0 mm
16:44 22.9 °C 11.3 °C 1012.1 hPa WSW 9.7 km/h 24.1 km/h 48% 0 mm
16:49 22.6 °C 10.7 °C 1012.1 hPa WSW 9.7 km/h 27.4 km/h 47% 0 mm
16:54 22.3 °C 10.7 °C 1012.1 hPa WSW 12.9 km/h 27.4 km/h 48% 0 mm
17:04 22.5 °C 11.6 °C 1012.1 hPa West 11.3 km/h 29 km/h 50% 0 mm
17:09 22.4 °C 10.5 °C 1012.1 hPa SW 17.7 km/h 22.5 km/h 47% 0 mm
17:14 22 °C 10.2 °C 1012.1 hPa WSW 12.9 km/h 24.1 km/h 47% 0 mm
17:19 21.4 °C 10.6 °C 1012.1 hPa WSW 14.5 km/h 25.7 km/h 50% 0 mm
17:24 21.5 °C 11.2 °C 1012.4 hPa SW 17.7 km/h 20.9 km/h 52% 0 mm
17:34 21.2 °C 10.3 °C 1012.1 hPa WSW 14.5 km/h 16.1 km/h 50% 0 mm
17:39 21.2 °C 10.9 °C 1012.4 hPa WSW 11.3 km/h 19.3 km/h 52% 0 mm
17:44 21.4 °C 10.6 °C 1012.4 hPa WSW 9.7 km/h 20.9 km/h 50% 0 mm
17:49 21.5 °C 10.6 °C 1012.4 hPa WSW 11.3 km/h 24.1 km/h 50% 0 mm
17:54 21.6 °C 10.4 °C 1012.1 hPa WSW 11.3 km/h 24.1 km/h 49% 0 mm
17:59 21.7 °C 8.9 °C 1012.1 hPa SSW 20.9 km/h 27.4 km/h 44% 0 mm
18:04 21.7 °C 9.6 °C 1012.1 hPa West 12.9 km/h 20.9 km/h 46% 0 mm
18:09 21.4 °C 9.9 °C 1012.4 hPa WSW 9.7 km/h 20.9 km/h 48% 0 mm
18:14 21.4 °C 10.6 °C 1012.4 hPa WSW 9.7 km/h 22.5 km/h 50% 0 mm
18:19 21.3 °C 10.7 °C 1012.4 hPa SW 11.3 km/h 22.5 km/h 51% 0 mm
18:24 20.9 °C 10.7 °C 1012.4 hPa WSW 11.3 km/h 20.9 km/h 52% 0 mm
18:29 20.8 °C 10.3 °C 1012.1 hPa WSW 12.9 km/h 24.1 km/h 51% 0 mm
18:34 20.6 °C 10.1 °C 1012.4 hPa SW 14.5 km/h 29 km/h 51% 0 mm
18:39 20.6 °C 10.3 °C 1012.4 hPa WSW 9.7 km/h 25.7 km/h 52% 0 mm
18:44 20.6 °C 10.3 °C 1012.4 hPa WSW 9.7 km/h 20.9 km/h 52% 0 mm
18:49 20.5 °C 10 °C 1012.1 hPa WSW 20.9 km/h 25.7 km/h 51% 0 mm
18:54 20.3 °C 10.1 °C 1012.4 hPa WSW 14.5 km/h 20.9 km/h 52% 0 mm
18:59 20.1 °C 10.2 °C 1012.4 hPa SW 6.4 km/h 22.5 km/h 53% 0 mm
19:04 20 °C 10.1 °C 1012.4 hPa WSW 17.7 km/h 22.5 km/h 53% 0 mm
19:09 19.8 °C 10.3 °C 1012.4 hPa WSW 12.9 km/h 22.5 km/h 54% 0 mm
19:14 19.7 °C 10.4 °C 1012.4 hPa WSW 12.9 km/h 22.5 km/h 55% 0 mm
19:19 19.7 °C 10.4 °C 1012.4 hPa WSW 9.7 km/h 22.5 km/h 55% 0 mm
19:24 19.7 °C 10.4 °C 1012.4 hPa WSW 9.7 km/h 24.1 km/h 55% 0 mm
19:29 19.5 °C 9.9 °C 1012.8 hPa WSW 12.9 km/h 25.7 km/h 54% 0 mm
19:34 19.4 °C 10.1 °C 1012.4 hPa WSW 12.9 km/h 25.7 km/h 55% 0 mm
19:39 19.4 °C 10.7 °C 1012.8 hPa WSW 9.7 km/h 20.9 km/h 57% 0 mm
19:44 19.2 °C 10.5 °C 1012.8 hPa WSW 4.8 km/h 22.5 km/h 57% 0 mm
19:49 19.1 °C 10.4 °C 1012.8 hPa West 3.2 km/h 17.7 km/h 57% 0 mm
19:54 19.1 °C 10.3 °C 1012.8 hPa SW 12.9 km/h 17.7 km/h 57% 0 mm
19:59 18.9 °C 10.2 °C 1012.8 hPa WSW 14.5 km/h 27.4 km/h 57% 0 mm
20:04 18.8 °C 10.3 °C 1012.8 hPa SW 8 km/h 17.7 km/h 58% 0 mm
20:09 18.6 °C 10.1 °C 1012.8 hPa SW 9.7 km/h 24.1 km/h 58% 0 mm
20:14 18.4 °C 10.3 °C 1012.8 hPa SW 9.7 km/h 24.1 km/h 59% 0 mm
20:19 18.4 °C 10.2 °C 1012.8 hPa SW 9.7 km/h 19.3 km/h 59% 0 mm
20:24 18.3 °C 10.4 °C 1012.8 hPa SW 9.7 km/h 19.3 km/h 60% 0 mm
20:29 18.2 °C 10.5 °C 1012.8 hPa SW 9.7 km/h 20.9 km/h 61% 0 mm
20:34 18.1 °C 10.4 °C 1012.4 hPa WSW 6.4 km/h 20.9 km/h 61% 0 mm
20:39 18.1 °C 10.4 °C 1012.4 hPa SW 11.3 km/h 24.1 km/h 61% 0 mm
20:44 17.9 °C 10.3 °C 1012.8 hPa SW 9.7 km/h 24.1 km/h 61% 0 mm
20:49 17.9 °C 10.3 °C 1012.4 hPa WSW 11.3 km/h 16.1 km/h 61% 0 mm
20:54 17.9 °C 10.1 °C 1012.4 hPa SW 4.8 km/h 12.9 km/h 60% 0 mm
20:59 18 °C 10.1 °C 1012.4 hPa SSW 4.8 km/h 12.9 km/h 60% 0 mm
21:04 18.1 °C 9.9 °C 1012.4 hPa South 9.7 km/h 17.7 km/h 59% 0 mm
21:09 18.2 °C 10 °C 1012.4 hPa SW 9.7 km/h 19.3 km/h 59% 0 mm
21:14 18.1 °C 9.9 °C 1012.4 hPa SW 9.7 km/h 19.3 km/h 59% 0 mm
21:19 18.1 °C 9.9 °C 1012.4 hPa SW 8 km/h 19.3 km/h 59% 0 mm
21:24 18.1 °C 9.4 °C 1012.8 hPa SW 9.7 km/h 17.7 km/h 57% 0 mm
21:29 18.2 °C 9.2 °C 1012.8 hPa WSW 4.8 km/h 19.3 km/h 56% 0 mm
21:34 18.2 °C 9.2 °C 1012.8 hPa SSW 11.3 km/h 17.7 km/h 56% 0 mm
21:39 18.2 °C 9 °C 1012.8 hPa WSW 8 km/h 14.5 km/h 55% 0 mm
21:44 18.2 °C 8.8 °C 1012.8 hPa SW 8 km/h 17.7 km/h 54% 0 mm
21:49 18.3 °C 8.8 °C 1012.8 hPa SW 11.3 km/h 20.9 km/h 54% 0 mm
21:54 18.3 °C 8.6 °C 1012.8 hPa WSW 4.8 km/h 14.5 km/h 53% 0 mm
21:59 18.3 °C 8.6 °C 1012.8 hPa WSW 12.9 km/h 14.5 km/h 53% 0 mm
22:04 18.3 °C 8.6 °C 1012.8 hPa SSW 4.8 km/h 12.9 km/h 53% 0 mm
22:09 18.3 °C 8.6 °C 1012.8 hPa South 3.2 km/h 14.5 km/h 53% 0 mm
22:14 18.3 °C 8.2 °C 1012.8 hPa SW 6.4 km/h 16.1 km/h 52% 0 mm
22:19 18.3 °C 8.6 °C 1012.8 hPa SW 6.4 km/h 16.1 km/h 53% 0 mm
22:24 18.4 °C 8.3 °C 1012.8 hPa SW 6.4 km/h 14.5 km/h 52% 0 mm
22:29 18.4 °C 8.4 °C 1012.8 hPa SW 6.4 km/h 14.5 km/h 52% 0 mm
22:34 18.3 °C 8.6 °C 1013.1 hPa SW 6.4 km/h 14.5 km/h 53% 0 mm
22:39 18.2 °C 8.4 °C 1012.8 hPa SSW 4.8 km/h 14.5 km/h 53% 0 mm
22:44 18.1 °C 8.7 °C 1012.8 hPa SW 6.4 km/h 14.5 km/h 54% 0 mm
22:49 18 °C 8.6 °C 1012.8 hPa WSW 4.8 km/h 14.5 km/h 54% 0 mm
22:54 18.1 °C 8.4 °C 1012.8 hPa SW 6.4 km/h 19.3 km/h 53% 0 mm
22:59 18.1 °C 8.3 °C 1012.8 hPa SW 3.2 km/h 12.9 km/h 53% 0 mm
23:04 18.1 °C 8.3 °C 1012.8 hPa SW 6.4 km/h 14.5 km/h 53% 0 mm
23:09 18.2 °C 8.2 °C 1012.8 hPa SW 3.2 km/h 14.5 km/h 52% 0 mm
23:14 18.3 °C 8.2 °C 1012.8 hPa SW 6.4 km/h 19.3 km/h 52% 0 mm
23:19 18.2 °C 8.2 °C 1012.8 hPa SW 6.4 km/h 19.3 km/h 52% 0 mm
23:24 18.1 °C 8.4 °C 1012.8 hPa SW 6.4 km/h 17.7 km/h 53% 0 mm
23:29 18 °C 8.3 °C 1012.8 hPa SSW 8 km/h 12.9 km/h 53% 0 mm
23:34 17.9 °C 8.2 °C 1012.8 hPa SSW 3.2 km/h 11.3 km/h 53% 0 mm
23:39 17.8 °C 8.3 °C 1012.8 hPa SSW 4.8 km/h 11.3 km/h 54% 0 mm
23:44 17.7 °C 8.5 °C 1012.8 hPa SSW 4.8 km/h 11.3 km/h 55% 0 mm
23:49 17.7 °C 8.5 °C 1012.4 hPa SSW 4.8 km/h 14.5 km/h 55% 0 mm
23:54 17.8 °C 8.6 °C 1012.4 hPa SW 8 km/h 12.9 km/h 55% 0 mm
23:59 17.8 °C 8.7 °C 1012.4 hPa SW 4.8 km/h 9.7 km/h 55% 0 mm
Buffalo, New York, USA
Compliments of Weather Underground - 2.5 mb